createdAt,value
2017-07-08T00:00:09.346Z,55.58
2017-07-08T00:01:19.720Z,55.4
2017-07-08T00:02:29.743Z,55.4
2017-07-08T00:03:40.106Z,55.4
2017-07-08T00:04:50.477Z,55.4
2017-07-08T00:06:00.827Z,55.3
2017-07-08T00:07:11.178Z,55.3
2017-07-08T00:08:21.587Z,55.3
2017-07-08T00:09:31.964Z,55.4
2017-07-08T00:10:42.315Z,55.4
2017-07-08T00:11:52.702Z,54.81
2017-07-08T00:13:02.728Z,55.1
2017-07-08T00:14:13.135Z,55.2
2017-07-08T00:15:23.486Z,55.2
2017-07-08T00:16:33.839Z,55.4
2017-07-08T00:17:44.191Z,55.4
2017-07-08T00:18:54.542Z,55.4
2017-07-08T00:20:04.645Z,55.4
2017-07-08T00:21:15.015Z,55.4
2017-07-08T00:22:25.360Z,55.3
2017-07-08T00:23:35.773Z,55.4
2017-07-08T00:24:46.129Z,55.4
2017-07-08T00:25:56.528Z,55.49
2017-07-08T00:27:06.571Z,55.4
2017-07-08T00:28:16.932Z,55.4
2017-07-08T00:29:26.653Z,55.4
2017-07-08T00:30:36.689Z,55.3
2017-07-08T00:31:47.096Z,55.2
2017-07-08T00:32:57.458Z,55.4
2017-07-08T00:34:07.822Z,55.4
2017-07-08T00:35:17.870Z,55.4
2017-07-08T00:36:28.209Z,55.4
2017-07-08T00:37:38.252Z,55.49
2017-07-08T00:38:48.592Z,55.4
2017-07-08T00:39:58.955Z,55.4
2017-07-08T00:41:09.007Z,55.4
2017-07-08T00:42:19.371Z,55.3
2017-07-08T00:43:29.142Z,55.1
2017-07-08T00:44:39.483Z,55.4
2017-07-08T00:45:49.837Z,55.3
2017-07-08T00:47:00.190Z,55.2
2017-07-08T00:48:09.908Z,55.2
2017-07-08T00:49:20.307Z,55.4
2017-07-08T00:50:30.346Z,55.07
2017-07-08T00:51:40.392Z,55.07
2017-07-08T00:52:50.753Z,55.1
2017-07-08T00:54:01.124Z,55.1
2017-07-08T00:55:11.202Z,55.07
2017-07-08T00:56:21.241Z,55.1
2017-07-08T00:57:31.588Z,55.1
2017-07-08T00:58:41.939Z,55.07
2017-07-08T00:59:52.300Z,55.2
2017-07-08T01:01:02.395Z,55.1
2017-07-08T01:02:12.759Z,55.4
2017-07-08T01:03:23.129Z,55.27
2017-07-08T01:04:33.490Z,55.3
2017-07-08T01:05:43.221Z,55.2
2017-07-08T01:06:53.277Z,55.17
2017-07-08T01:08:03.640Z,55.3
2017-07-08T01:09:14.005Z,55.07
2017-07-08T01:10:24.028Z,55.17
2017-07-08T01:11:34.388Z,55.2
2017-07-08T01:12:44.738Z,55.07
2017-07-08T01:13:55.105Z,54.98
2017-07-08T01:15:05.471Z,55.27
2017-07-08T01:16:15.818Z,55.56
2017-07-08T01:17:26.164Z,55.46
2017-07-08T01:18:36.568Z,55.46
2017-07-08T01:19:47.171Z,55.36
2017-07-08T01:20:57.211Z,55.36
2017-07-08T01:22:07.571Z,55.46
2017-07-08T01:23:17.924Z,55.56
2017-07-08T01:24:28.325Z,55.46
2017-07-08T01:25:38.681Z,55.46
2017-07-08T01:26:49.034Z,55.36
2017-07-08T01:27:59.065Z,55.17
2017-07-08T01:29:09.427Z,55.56
2017-07-08T01:30:19.533Z,55.46
2017-07-08T01:31:29.898Z,55.27
2017-07-08T01:32:40.258Z,55.27
2017-07-08T01:33:50.599Z,55.4
2017-07-08T01:35:00.942Z,55.27
2017-07-08T01:36:11.289Z,55.58
2017-07-08T01:37:21.636Z,55.56
2017-07-08T01:38:31.996Z,55.27
2017-07-08T01:39:42.344Z,55.3
2017-07-08T01:40:52.706Z,55.4
2017-07-08T01:42:03.116Z,55.4
2017-07-08T01:43:13.471Z,55.56
2017-07-08T01:44:23.513Z,55.3
2017-07-08T01:45:33.559Z,55.4
2017-07-08T01:46:43.903Z,55.36
2017-07-08T01:47:54.311Z,55.36
2017-07-08T01:49:04.343Z,55.27
2017-07-08T01:50:14.376Z,55.36
2017-07-08T01:51:24.396Z,55.36
2017-07-08T01:52:34.767Z,55.36
2017-07-08T01:53:44.542Z,55.36
2017-07-08T01:54:54.892Z,55.36
2017-07-08T01:56:04.914Z,55.36
2017-07-08T01:57:15.264Z,55.36
2017-07-08T01:58:25.633Z,55.36
2017-07-08T01:59:35.984Z,55.17
2017-07-08T02:00:46.328Z,55.17
2017-07-08T02:01:56.686Z,55.07
2017-07-08T02:03:06.732Z,55.17
2017-07-08T02:04:17.100Z,54.98
2017-07-08T02:05:27.513Z,55.07
2017-07-08T02:06:37.563Z,55.17
2017-07-08T02:07:47.906Z,55
2017-07-08T02:08:57.930Z,54.91
2017-07-08T02:10:08.279Z,55.1
2017-07-08T02:11:18.651Z,55.2
2017-07-08T02:12:28.687Z,55.36
2017-07-08T02:13:39.040Z,55.49
2017-07-08T02:14:49.397Z,55.46
2017-07-08T02:15:59.455Z,55.36
2017-07-08T02:17:09.822Z,55.27
2017-07-08T02:18:20.187Z,55.56
2017-07-08T02:19:30.557Z,55.3
2017-07-08T02:20:40.922Z,55.68
2017-07-08T02:21:51.292Z,55.66
2017-07-08T02:23:01.328Z,55.27
2017-07-08T02:24:11.691Z,55.27
2017-07-08T02:25:22.042Z,55.66
2017-07-08T02:26:31.765Z,55.56
2017-07-08T02:27:41.797Z,55.58
2017-07-08T02:28:51.304Z,55.56
2017-07-08T02:30:01.335Z,55.76
2017-07-08T02:31:11.377Z,55.56
2017-07-08T02:32:21.738Z,55.56
2017-07-08T02:33:32.090Z,55.46
2017-07-08T02:34:42.177Z,55.36
2017-07-08T02:35:52.524Z,55.58
2017-07-08T02:37:02.862Z,55.76
2017-07-08T02:38:13.199Z,55.58
2017-07-08T02:39:23.557Z,55.56
2017-07-08T02:40:33.963Z,55.56
2017-07-08T02:41:44.027Z,55.68
2017-07-08T02:42:54.049Z,55.49
2017-07-08T02:44:04.093Z,55.56
2017-07-08T02:45:14.455Z,55.36
2017-07-08T02:46:24.526Z,55.58
2017-07-08T02:47:34.877Z,55.66
2017-07-08T02:48:45.222Z,55.56
2017-07-08T02:49:55.581Z,55.36
2017-07-08T02:51:05.987Z,55.66
2017-07-08T02:52:15.749Z,55.56
2017-07-08T02:53:26.097Z,55.36
2017-07-08T02:54:36.444Z,55.66
2017-07-08T02:55:46.803Z,55.76
2017-07-08T02:56:56.849Z,55.56
2017-07-08T02:58:06.927Z,55.36
2017-07-08T02:59:16.978Z,55.46
2017-07-08T03:00:27.012Z,55.68
2017-07-08T03:01:37.368Z,55.36
2017-07-08T03:33:27.818Z,52.62
2017-07-08T03:34:38.149Z,52.43
2017-07-08T03:35:48.514Z,53.39
2017-07-08T03:36:58.862Z,54.17
2017-07-08T03:38:09.218Z,54.55
2017-07-08T03:39:18.993Z,55.26
2017-07-08T03:40:29.351Z,55.45
2017-07-08T03:41:39.715Z,55.26
2017-07-08T03:42:50.075Z,55.45
2017-07-08T03:44:00.103Z,55.38
2017-07-08T03:45:10.506Z,55.47
2017-07-08T03:46:20.855Z,55.41
2017-07-08T03:47:30.891Z,55.6
2017-07-08T03:48:40.925Z,55.82
2017-07-08T03:49:51.269Z,55.53
2017-07-08T03:51:01.303Z,55.73
2017-07-08T03:52:11.329Z,55.53
2017-07-08T03:53:21.365Z,55.56
2017-07-08T03:54:31.726Z,55.56
2017-07-08T03:55:42.079Z,55.56
2017-07-08T03:56:52.491Z,55.49
2017-07-08T03:58:02.531Z,55.58
2017-07-08T03:59:12.566Z,55.4
2017-07-08T04:00:22.926Z,54.91
2017-07-08T04:01:33.270Z,55.04
2017-07-08T04:02:43.674Z,55.42
2017-07-08T04:03:54.031Z,55.42
2017-07-08T04:05:04.390Z,55.64
2017-07-08T04:06:14.752Z,55.44
2017-07-08T04:07:25.118Z,55.16
2017-07-08T04:08:35.475Z,55.54
2017-07-08T04:09:45.200Z,55.28
2017-07-08T04:10:55.254Z,54.99
2017-07-08T04:12:05.611Z,54.8
2017-07-08T04:13:15.982Z,54.82
2017-07-08T04:14:26.398Z,54.72
2017-07-08T04:15:35.807Z,54.63
2017-07-08T04:16:46.202Z,54.63
2017-07-08T04:17:56.570Z,54.72
2017-07-08T04:19:06.951Z,54.66
2017-07-08T04:20:17.027Z,54.66
2017-07-08T04:21:27.386Z,54.85
2017-07-08T04:22:37.424Z,54.66
2017-07-08T04:23:47.771Z,54.49
2017-07-08T04:24:58.127Z,53.52
2017-07-08T04:26:08.476Z,51.75
2017-07-08T04:27:18.818Z,50.21
2017-07-08T04:28:29.195Z,48.65
2017-07-08T04:29:39.548Z,48.46
2017-07-08T04:30:49.598Z,47.96
2017-07-08T04:32:00.002Z,48.47
2017-07-08T04:33:10.376Z,48.62
2017-07-08T04:34:20.736Z,48.84
2017-07-08T04:35:30.770Z,49.7
2017-07-08T04:36:40.817Z,49.51
2017-07-08T04:37:51.214Z,49.53
2017-07-08T04:39:01.569Z,49.46
2017-07-08T04:40:11.611Z,48.99
2017-07-08T04:41:21.645Z,49.8
2017-07-08T04:42:31.990Z,50.26
2017-07-08T04:43:42.654Z,49.18
2017-07-08T04:44:52.689Z,50.21
2017-07-08T04:46:02.727Z,52.43
2017-07-08T04:47:12.789Z,53.67
2017-07-08T04:48:23.135Z,53.43
2017-07-08T04:49:33.497Z,53.13
2017-07-08T04:50:43.539Z,53.47
2017-07-08T04:51:53.897Z,52.74
2017-07-08T04:53:04.263Z,51.66
2017-07-08T04:54:14.304Z,50.59
2017-07-08T04:55:24.752Z,50.46
2017-07-08T04:56:34.188Z,49.8
2017-07-08T04:57:44.559Z,49.13
2017-07-08T04:58:54.917Z,48.76
2017-07-08T05:00:04.968Z,49.01
2017-07-08T05:01:15.362Z,48.63
2017-07-08T05:02:25.088Z,48.63
2017-07-08T05:03:35.137Z,48.66
2017-07-08T05:04:45.188Z,48.56
2017-07-08T05:05:54.926Z,48.39
2017-07-08T05:07:05.350Z,49.01
2017-07-08T05:08:15.053Z,49.01
2017-07-08T05:09:25.391Z,48.93
2017-07-08T05:10:35.762Z,48.9
2017-07-08T05:11:46.122Z,48.63
2017-07-08T05:12:56.229Z,48.8
2017-07-08T05:14:06.601Z,48.8
2017-07-08T05:15:17.002Z,48.31
2017-07-08T05:16:27.037Z,48.14
2017-07-08T05:17:37.397Z,47.74
2017-07-08T05:18:47.808Z,47.66
2017-07-08T05:19:57.843Z,47.29
2017-07-08T05:21:08.204Z,47.41
2017-07-08T05:22:18.561Z,47.52
2017-07-08T05:23:28.912Z,47.41
2017-07-08T05:24:39.357Z,47.44
2017-07-08T05:25:49.713Z,47.74
2017-07-08T05:27:00.095Z,47.53
2017-07-08T05:28:10.452Z,47.44
2017-07-08T05:29:20.825Z,47.81
2017-07-08T05:30:31.238Z,48.21
2017-07-08T05:31:41.599Z,48.48
2017-07-08T05:32:51.641Z,48.88
2017-07-08T05:34:01.675Z,48.75
2017-07-08T05:35:12.026Z,48.65
2017-07-08T05:36:22.437Z,48.85
2017-07-08T05:37:32.482Z,48.63
2017-07-08T05:38:42.536Z,48.73
2017-07-08T05:39:52.910Z,48.73
2017-07-08T05:41:03.286Z,48.8
2017-07-08T05:42:13.689Z,48.8
2017-07-08T05:43:23.372Z,48.71
2017-07-08T05:44:33.752Z,48.71
2017-07-08T05:45:44.103Z,48.63
2017-07-08T05:46:54.492Z,48.9
2017-07-08T05:48:04.546Z,48.73
2017-07-08T05:49:14.910Z,48.8
2017-07-08T05:50:25.269Z,48.73
2017-07-08T05:51:35.645Z,48.51
2017-07-08T05:52:45.700Z,48.73
2017-07-08T05:53:55.490Z,48.63
2017-07-08T05:55:05.538Z,48.73
2017-07-08T05:56:15.916Z,48.8
2017-07-08T05:57:26.286Z,49.3
2017-07-08T05:58:36.644Z,49.18
2017-07-08T05:59:47.040Z,49.25
2017-07-08T06:00:57.103Z,49.65
2017-07-08T06:02:07.447Z,49.74
2017-07-08T06:03:17.491Z,49.52
2017-07-08T06:04:27.862Z,49.92
2017-07-08T06:05:38.224Z,50.19
2017-07-08T06:06:48.600Z,50.38
2017-07-08T06:07:58.957Z,50.49
2017-07-08T06:09:08.979Z,50.56
2017-07-08T06:10:19.338Z,50.16
2017-07-08T06:11:29.747Z,50.56
2017-07-08T06:12:40.116Z,50.76
2017-07-08T06:13:50.461Z,50.66
2017-07-08T06:15:00.816Z,50.44
2017-07-08T06:16:10.859Z,50.76
2017-07-08T06:17:21.267Z,50.83
2017-07-08T06:18:31.630Z,50.85
2017-07-08T06:19:41.685Z,50.73
2017-07-08T06:20:51.721Z,50.63
2017-07-08T06:22:02.086Z,50.83
2017-07-08T06:23:12.435Z,50.73
2017-07-08T06:24:22.781Z,51.03
2017-07-08T06:25:33.129Z,50.63
2017-07-08T06:26:43.491Z,50.81
2017-07-08T06:27:53.857Z,51.2
2017-07-08T06:29:04.263Z,51.2
2017-07-08T06:30:14.607Z,51.59
2017-07-08T06:31:24.958Z,51.28
2017-07-08T06:32:35.024Z,51.37
2017-07-08T06:33:45.063Z,51.47
2017-07-08T06:34:55.469Z,51.37
2017-07-08T06:36:05.530Z,51.37
2017-07-08T06:37:15.906Z,51.37
2017-07-08T06:38:26.265Z,51.76
2017-07-08T06:39:36.626Z,51.37
2017-07-08T06:40:46.344Z,51.57
2017-07-08T06:41:56.699Z,51.64
2017-07-08T06:43:06.746Z,52.21
2017-07-08T06:44:17.109Z,52.4
2017-07-08T06:45:27.466Z,52.38
2017-07-08T06:46:37.816Z,52.18
2017-07-08T06:47:47.881Z,51.98
2017-07-08T06:48:58.266Z,52.48
2017-07-08T06:50:08.622Z,52.55
2017-07-08T06:51:18.984Z,52.25
2017-07-08T06:52:29.335Z,52.25
2017-07-08T06:53:39.690Z,52.25
2017-07-08T06:54:49.738Z,52.25
2017-07-08T06:55:59.785Z,52.42
2017-07-08T06:57:09.837Z,52.52
2017-07-08T06:58:20.209Z,52.92
2017-07-08T06:59:30.576Z,52.62
2017-07-08T07:00:40.933Z,52.42
2017-07-08T07:01:51.299Z,52.52
2017-07-08T07:03:01.660Z,52.52
2017-07-08T07:04:11.753Z,52.8
2017-07-08T07:05:22.110Z,52.59
2017-07-08T07:06:32.148Z,52.5
2017-07-08T07:07:42.178Z,52.89
2017-07-08T07:08:52.220Z,52.8
2017-07-08T07:10:02.633Z,53.06
2017-07-08T07:11:12.988Z,53.06
2017-07-08T07:12:23.345Z,52.67
2017-07-08T07:13:33.714Z,52.76
2017-07-08T07:14:44.069Z,53.75
2017-07-08T07:15:54.654Z,53.65
2017-07-08T07:17:05.028Z,53.65
2017-07-08T07:18:15.388Z,53.53
2017-07-08T07:19:25.745Z,53.23
2017-07-08T07:20:35.794Z,53.13
2017-07-08T07:21:45.912Z,53.03
2017-07-08T07:22:56.284Z,52.81
2017-07-08T07:24:06.002Z,53.4
2017-07-08T07:25:16.354Z,53.08
2017-07-08T07:26:26.711Z,52.62
2017-07-08T07:27:37.087Z,53.5
2017-07-08T07:28:47.140Z,53.28
2017-07-08T07:29:57.516Z,53.4
2017-07-08T07:31:07.267Z,53.4
2017-07-08T07:32:17.635Z,53.47
2017-07-08T07:33:27.733Z,53.4
2017-07-08T07:34:37.779Z,53.2
2017-07-08T07:35:47.805Z,53.59
2017-07-08T07:36:58.152Z,53.5
2017-07-08T07:38:08.517Z,53.5
2017-07-08T07:39:18.926Z,53.2
2017-07-08T07:40:29.291Z,53.59
2017-07-08T07:41:39.037Z,53.59
2017-07-08T07:42:49.075Z,53.59
2017-07-08T07:43:59.447Z,53.59
2017-07-08T07:45:09.545Z,53.4
2017-07-08T07:46:19.904Z,53.69
2017-07-08T07:47:30.271Z,53.5
2017-07-08T07:48:40.634Z,52.74
2017-07-08T07:49:50.995Z,52.74
2017-07-08T07:51:01.358Z,52.64
2017-07-08T07:52:11.719Z,52.94
2017-07-08T07:53:22.064Z,52.64
2017-07-08T07:54:32.407Z,52.64
2017-07-08T07:55:42.471Z,52.74
2017-07-08T07:56:52.889Z,53.06
2017-07-08T07:58:03.232Z,52.57
2017-07-08T07:59:13.275Z,52.67
2017-07-08T08:00:23.645Z,52.57
2017-07-08T08:01:33.685Z,52.76
2017-07-08T08:02:44.066Z,52.89
2017-07-08T08:03:54.117Z,52.69
2017-07-08T08:05:04.487Z,52.69
2017-07-08T08:06:14.858Z,52.69
2017-07-08T08:07:25.222Z,52.8
2017-07-08T08:08:35.313Z,52.5
2017-07-08T08:09:45.667Z,52.72
2017-07-08T08:10:56.027Z,52.69
2017-07-08T08:12:06.385Z,52.69
2017-07-08T08:13:16.741Z,52.99
2017-07-08T08:14:27.141Z,52.92
2017-07-08T08:15:37.505Z,52.82
2017-07-08T08:16:47.900Z,52.72
2017-07-08T08:17:58.258Z,52.82
2017-07-08T08:19:08.620Z,53.02
2017-07-08T08:20:18.725Z,52.92
2017-07-08T08:21:29.087Z,52.84
2017-07-08T08:22:39.136Z,53.04
2017-07-08T08:23:49.500Z,53.04
2017-07-08T08:24:59.544Z,52.84
2017-07-08T08:26:09.967Z,52.55
2017-07-08T08:27:20.002Z,52.48
2017-07-08T08:28:30.035Z,52.35
2017-07-08T08:29:40.390Z,52.67
2017-07-08T08:30:50.758Z,52.48
2017-07-08T08:32:01.139Z,53.06
2017-07-08T08:33:11.177Z,52.48
2017-07-08T08:34:21.542Z,52.87
2017-07-08T08:35:31.950Z,52.6
2017-07-08T08:36:41.988Z,52.4
2017-07-08T08:37:52.347Z,52.6
2017-07-08T08:39:02.390Z,53.06
2017-07-08T08:40:12.422Z,52.87
2017-07-08T08:41:22.787Z,52.58
2017-07-08T08:42:33.141Z,52.89
2017-07-08T08:43:43.496Z,53.49
2017-07-08T08:44:53.856Z,53.27
2017-07-08T08:46:04.214Z,53.53
2017-07-08T08:47:14.582Z,53.63
2017-07-08T08:48:24.953Z,53.44
2017-07-08T08:49:35.356Z,52.65
2017-07-08T08:50:45.721Z,52.77
2017-07-08T08:51:56.134Z,52.87
2017-07-08T08:53:06.181Z,53.56
2017-07-08T08:54:16.541Z,53.14
2017-07-08T08:55:26.954Z,53.14
2017-07-08T08:56:37.306Z,53.04
2017-07-08T08:57:47.672Z,52.97
2017-07-08T08:58:57.730Z,52.58
2017-07-08T09:00:08.088Z,52.8
2017-07-08T09:01:18.495Z,52.43
2017-07-08T09:02:28.858Z,53.12
2017-07-08T09:03:39.230Z,52.53
2017-07-08T09:04:49.301Z,53.22
2017-07-08T09:05:59.680Z,52.7
2017-07-08T09:07:10.035Z,52.89
2017-07-08T09:08:20.406Z,52.62
2017-07-08T09:09:30.774Z,52.36
2017-07-08T09:10:41.142Z,52.65
2017-07-08T09:11:51.502Z,53.7
2017-07-08T09:13:01.918Z,53.19
2017-07-08T09:14:12.311Z,53.58
2017-07-08T09:15:22.368Z,53.78
2017-07-08T09:16:32.416Z,53.39
2017-07-08T09:17:42.451Z,53.12
2017-07-08T09:18:52.504Z,52.82
2017-07-08T09:20:02.561Z,53.02
2017-07-08T09:21:12.930Z,53.05
2017-07-08T09:22:23.300Z,52.26
2017-07-08T09:23:33.656Z,52.19
2017-07-08T09:24:44.063Z,52.7
2017-07-08T09:25:54.438Z,52.61
2017-07-08T09:27:04.793Z,52.97
2017-07-08T09:28:15.218Z,53.54
2017-07-08T09:29:25.278Z,53.81
2017-07-08T09:30:34.687Z,53.12
2017-07-08T09:31:44.721Z,53.14
2017-07-08T09:32:55.087Z,53.7
2017-07-08T09:34:04.803Z,53.19
2017-07-08T09:35:15.193Z,53.29
2017-07-08T09:36:24.934Z,53.58
2017-07-08T09:37:34.656Z,53.56
2017-07-08T09:38:44.706Z,53.56
2017-07-08T09:39:55.077Z,53.16
2017-07-08T09:41:05.463Z,52.77
2017-07-08T09:42:15.887Z,52.53
2017-07-08T09:43:26.303Z,52.26
2017-07-08T09:44:36.654Z,52.19
2017-07-08T09:45:47.021Z,51.99
2017-07-08T09:46:57.373Z,51.92
2017-07-08T09:48:07.418Z,51.72
2017-07-08T09:49:17.794Z,51.35
2017-07-08T09:50:27.862Z,51.77
2017-07-08T09:51:37.925Z,52.26
2017-07-08T09:52:48.341Z,52.33
2017-07-08T09:53:58.389Z,52.43
2017-07-08T09:55:08.127Z,52.33
2017-07-08T09:56:18.502Z,52.46
2017-07-08T09:57:28.878Z,52.58
2017-07-08T09:58:39.239Z,52.75
2017-07-08T09:59:49.598Z,52.53
2017-07-08T10:00:59.055Z,52.43
2017-07-08T10:02:09.426Z,52.66
2017-07-08T10:03:19.788Z,52.92
2017-07-08T10:04:30.145Z,53
2017-07-08T10:05:40.529Z,52.9
2017-07-08T10:06:50.948Z,53
2017-07-08T10:08:01.005Z,53
2017-07-08T10:09:11.360Z,53.17
2017-07-08T10:10:21.756Z,53.07
2017-07-08T10:11:31.810Z,52.5
2017-07-08T10:12:42.212Z,52.53
2017-07-08T10:13:52.574Z,52.56
2017-07-08T10:15:02.943Z,51.87
2017-07-08T10:16:12.972Z,51.69
2017-07-08T10:17:23.347Z,51.52
2017-07-08T10:18:33.448Z,51.35
2017-07-08T10:19:43.513Z,51.18
2017-07-08T10:20:53.871Z,51.57
2017-07-08T10:22:04.247Z,50.98
2017-07-08T10:23:14.292Z,51.2
2017-07-08T10:24:24.706Z,50.53
2017-07-08T10:25:34.777Z,50.95
2017-07-08T10:26:44.843Z,52.24
2017-07-08T10:27:55.212Z,52.39
2017-07-08T10:29:05.601Z,52.73
2017-07-08T10:30:16.028Z,53.2
2017-07-08T10:31:26.093Z,52.61
2017-07-08T10:32:36.156Z,52.53
2017-07-08T10:33:46.524Z,51.57
2017-07-08T10:34:56.888Z,51.52
2017-07-08T10:36:06.983Z,51.75
2017-07-08T10:37:17.029Z,51.52
2017-07-08T10:38:27.396Z,51.54
2017-07-08T10:39:37.759Z,52.44
2017-07-08T10:40:48.144Z,51.72
2017-07-08T10:41:58.563Z,51.42
2017-07-08T10:43:08.931Z,52.81
2017-07-08T10:44:18.680Z,52.88
2017-07-08T10:45:29.051Z,52.46
2017-07-08T10:46:39.435Z,51.89
2017-07-08T10:47:49.865Z,52.61
2017-07-08T10:48:59.911Z,52.78
2017-07-08T10:50:10.280Z,53.15
2017-07-08T10:51:20.005Z,52.36
2017-07-08T10:52:30.364Z,51.7
2017-07-08T10:53:40.785Z,51.18
2017-07-08T10:54:51.151Z,50.6
2017-07-08T10:56:01.210Z,50.56
2017-07-08T10:57:11.589Z,50.09
2017-07-08T10:58:21.638Z,50.11
2017-07-08T10:59:32.014Z,50.11
2017-07-08T11:00:42.390Z,50.81
2017-07-08T11:01:52.753Z,50.83
2017-07-08T11:03:03.129Z,50.81
2017-07-08T11:04:13.517Z,51
2017-07-08T11:05:23.611Z,52.07
2017-07-08T11:06:33.975Z,52.24
2017-07-08T11:07:44.031Z,51.72
2017-07-08T11:08:54.073Z,51.25
2017-07-08T11:10:04.442Z,51.07
2017-07-08T11:11:14.808Z,50.68
2017-07-08T11:12:25.154Z,50.9
2017-07-08T11:13:35.518Z,50.53
2017-07-08T11:14:45.253Z,50.73
2017-07-08T11:15:55.301Z,50.85
2017-07-08T11:17:05.701Z,50.75
2017-07-08T11:18:15.438Z,51.35
2017-07-08T11:19:25.505Z,50.93
2017-07-08T11:20:35.885Z,50.75
2017-07-08T11:21:46.255Z,51.07
2017-07-08T11:22:56.663Z,50.98
2017-07-08T11:24:07.022Z,51.25
2017-07-08T11:25:17.389Z,52.19
2017-07-08T11:26:27.756Z,52.84
2017-07-08T11:27:37.842Z,53.5
2017-07-08T11:28:47.902Z,53.75
2017-07-08T11:29:57.965Z,53.92
2017-07-08T11:31:08.343Z,53.6
2017-07-08T11:32:18.403Z,53.67
2017-07-08T11:33:28.791Z,54.04
2017-07-08T11:34:39.150Z,54.41
2017-07-08T11:35:49.515Z,54.19
2017-07-08T11:36:59.881Z,54.16
2017-07-08T11:38:10.240Z,53.86
2017-07-08T11:39:20.619Z,53.64
2017-07-08T11:40:31.014Z,53.54
2017-07-08T11:41:41.070Z,53.77
2017-07-08T11:42:51.261Z,53.08
2017-07-08T11:44:01.632Z,53.27
2017-07-08T11:45:12.028Z,53.37
2017-07-08T11:46:22.377Z,52.98
2017-07-08T11:47:32.433Z,53.54
2017-07-08T11:48:42.493Z,53.84
2017-07-08T11:49:52.873Z,53.71
2017-07-08T11:51:02.939Z,53.71
2017-07-08T11:52:13.305Z,53.69
2017-07-08T11:53:23.361Z,53.69
2017-07-08T11:54:32.475Z,53.78
2017-07-08T11:55:42.845Z,53.78
2017-07-08T11:56:52.956Z,53.17
2017-07-08T11:58:02.693Z,53.66
2017-07-08T11:59:13.056Z,53.76
2017-07-08T12:00:23.421Z,53.47
2017-07-08T12:01:33.788Z,53.76
2017-07-08T12:02:44.155Z,53.64
2017-07-08T12:03:54.572Z,53.51
2017-07-08T12:05:04.629Z,54.66
2017-07-08T12:06:14.980Z,54.35
2017-07-08T12:07:25.352Z,54.98
2017-07-08T12:08:35.716Z,54.66
2017-07-08T12:09:46.126Z,55.22
2017-07-08T12:10:56.478Z,55.39
2017-07-08T12:12:06.823Z,55.33
2017-07-08T12:13:16.553Z,55.24
2017-07-08T12:14:26.926Z,55.31
2017-07-08T12:15:37.339Z,55.65
2017-07-08T12:16:47.378Z,56.54
2017-07-08T12:17:57.746Z,56.68
2017-07-08T12:19:08.130Z,55.77
2017-07-08T12:20:18.497Z,55.65
2017-07-08T12:21:28.911Z,55.65
2017-07-08T12:22:39.263Z,54.94
2017-07-08T12:23:49.457Z,54.75
2017-07-08T12:24:59.505Z,54.52
2017-07-08T12:26:09.574Z,54.72
2017-07-08T12:27:19.928Z,54.4
2017-07-08T12:28:30.279Z,54.5
2017-07-08T12:29:40.371Z,54.21
2017-07-08T12:30:50.398Z,54.11
2017-07-08T12:32:00.765Z,53.69
2017-07-08T12:33:10.807Z,53.14
2017-07-08T12:34:21.209Z,52.94
2017-07-08T12:35:31.257Z,52.97
2017-07-08T12:36:41.294Z,52.4
2017-07-08T12:37:51.345Z,52.5
2017-07-08T12:39:01.387Z,52.4
2017-07-08T12:40:11.432Z,52.22
2017-07-08T12:41:21.787Z,53.28
2017-07-08T12:42:31.825Z,52.99
2017-07-08T12:43:42.194Z,52.77
2017-07-08T12:44:52.295Z,52.97
2017-07-08T12:46:02.633Z,53.26
2017-07-08T12:47:12.993Z,53.33
2017-07-08T12:48:23.355Z,53.14
2017-07-08T12:49:33.706Z,53.04
2017-07-08T12:50:44.054Z,52.77
2017-07-08T12:51:54.418Z,52.77
2017-07-08T12:53:04.446Z,53.06
2017-07-08T12:54:14.477Z,52.87
2017-07-08T12:55:24.511Z,52.22
2017-07-08T12:56:34.550Z,52.12
2017-07-08T12:57:45.174Z,52.04
2017-07-08T12:58:55.271Z,51.87
2017-07-08T13:00:05.301Z,51.61
2017-07-08T13:01:15.651Z,51.43
2017-07-08T13:02:26.002Z,51.07
2017-07-08T13:03:36.370Z,50.81
2017-07-08T13:04:46.717Z,50.34
2017-07-08T13:05:57.072Z,50.46
2017-07-08T13:07:07.109Z,49.9
2017-07-08T13:08:17.146Z,49.07
2017-07-08T13:09:27.508Z,48.94
2017-07-08T13:10:37.530Z,48.57
2017-07-08T13:11:47.612Z,48.4
2017-07-08T13:12:57.959Z,48.43
2017-07-08T13:14:08.001Z,48.65
2017-07-08T13:15:18.361Z,48.94
2017-07-08T13:16:28.399Z,48.96
2017-07-08T13:17:38.757Z,49.06
2017-07-08T13:18:48.792Z,49.28
2017-07-08T13:19:59.159Z,50.26
2017-07-08T13:21:09.186Z,50.81
2017-07-08T13:22:19.228Z,51.4
2017-07-08T13:23:29.625Z,51.47
2017-07-08T13:24:39.661Z,51.84
2017-07-08T13:25:49.731Z,51.81
2017-07-08T13:27:00.081Z,52.01
2017-07-08T13:28:10.441Z,51.72
2017-07-08T13:29:20.808Z,51.84
2017-07-08T13:30:31.160Z,51.32
2017-07-08T13:31:41.518Z,51.25
2017-07-08T13:32:51.865Z,51.27
2017-07-08T13:34:02.244Z,51.17
2017-07-08T13:35:12.282Z,51.67
2017-07-08T13:36:22.000Z,52.52
2017-07-08T13:37:32.346Z,52.01
2017-07-08T13:38:42.714Z,52.11
2017-07-08T13:39:53.088Z,52.8
2017-07-08T13:41:03.490Z,52.11
2017-07-08T13:42:13.536Z,52.2
2017-07-08T13:43:23.901Z,52.11
2017-07-08T13:44:34.276Z,52.2
2017-07-08T13:45:44.332Z,51.72
2017-07-08T13:46:54.123Z,51.45
2017-07-08T13:48:04.497Z,51.37
2017-07-08T13:49:14.862Z,50.98
2017-07-08T13:50:24.930Z,51.59
2017-07-08T13:51:35.301Z,51.2
2017-07-08T13:52:45.668Z,51.2
2017-07-08T13:53:55.690Z,50.85
2017-07-08T13:55:06.046Z,50.85
2017-07-08T13:56:16.105Z,50.59
2017-07-08T13:57:26.470Z,50.42
2017-07-08T13:58:36.886Z,50.83
2017-07-08T13:59:47.243Z,50.07
2017-07-08T14:00:57.605Z,49.4
2017-07-08T14:02:07.973Z,49.25
2017-07-08T14:03:18.328Z,49.3
2017-07-08T14:04:28.834Z,48.93
2017-07-08T14:05:39.208Z,49.25
2017-07-08T14:06:49.587Z,49.15
2017-07-08T14:07:59.620Z,49.44
2017-07-08T14:09:09.977Z,50.53
2017-07-08T14:10:20.401Z,50.43
2017-07-08T14:11:30.762Z,50.81
2017-07-08T14:12:41.115Z,51.37
2017-07-08T14:13:51.497Z,51.84
2017-07-08T14:15:01.847Z,52.51
2017-07-08T14:16:11.636Z,52.78
2017-07-08T14:17:21.708Z,52.83
2017-07-08T14:18:32.077Z,53.3
2017-07-08T14:19:42.125Z,53.66
2017-07-08T14:20:52.180Z,53.66
2017-07-08T14:22:02.266Z,53.47
2017-07-08T14:23:12.623Z,53.76
2017-07-08T14:24:22.974Z,53.93
2017-07-08T14:25:33.323Z,53.64
2017-07-08T14:26:43.689Z,53.7
2017-07-08T14:27:53.808Z,53.41
2017-07-08T14:29:04.174Z,53.7
2017-07-08T14:30:14.219Z,53.41
2017-07-08T14:31:23.946Z,53.61
2017-07-08T14:32:33.667Z,53.29
2017-07-08T14:33:44.026Z,53.29
2017-07-08T14:34:54.438Z,53.46
2017-07-08T14:36:04.802Z,53.46
2017-07-08T14:37:14.835Z,53.16
2017-07-08T14:38:24.938Z,53.66
2017-07-08T14:39:35.368Z,53.46
2017-07-08T14:40:45.740Z,53.19
2017-07-08T14:41:56.110Z,52.99
2017-07-08T14:43:06.479Z,52.72
2017-07-08T14:44:16.831Z,52.92
2017-07-08T14:45:26.927Z,53.02
2017-07-08T14:46:36.968Z,52.92
2017-07-08T14:47:47.325Z,52.92
2017-07-08T14:48:57.043Z,53.12
2017-07-08T14:50:07.430Z,53.78
2017-07-08T14:51:18.082Z,53.39
2017-07-08T14:52:28.127Z,53.58
2017-07-08T14:53:38.175Z,53.39
2017-07-08T14:54:48.217Z,53.68
2017-07-08T14:55:58.579Z,53.29
2017-07-08T14:57:08.959Z,53.29
2017-07-08T14:58:19.313Z,52.92
2017-07-08T14:59:29.675Z,53.12
2017-07-08T15:00:40.070Z,52.92
2017-07-08T15:01:50.110Z,52.72
2017-07-08T15:03:00.509Z,52.45
2017-07-08T15:04:10.929Z,52.55
2017-07-08T15:05:21.307Z,52.55
2017-07-08T15:06:31.679Z,52.65
2017-07-08T15:07:42.059Z,52.65
2017-07-08T15:08:52.482Z,52.55
2017-07-08T15:10:02.523Z,52.65
2017-07-08T15:11:12.581Z,52.68
2017-07-08T15:12:22.946Z,52.58
2017-07-08T15:13:32.990Z,52.58
2017-07-08T15:14:43.087Z,52.68
2017-07-08T15:15:53.442Z,52.58
2017-07-08T15:17:03.815Z,52.48
2017-07-08T15:18:14.171Z,52.58
2017-07-08T15:19:24.539Z,52.58
2017-07-08T15:20:34.271Z,52.38
2017-07-08T15:21:44.321Z,52.28
2017-07-08T15:22:54.364Z,52.48
2017-07-08T15:24:04.730Z,52.87
2017-07-08T15:25:15.082Z,52.31
2017-07-08T15:26:25.506Z,52.61
2017-07-08T15:27:35.859Z,52.61
2017-07-08T15:28:46.218Z,52.61
2017-07-08T15:29:56.260Z,52.78
2017-07-08T15:31:05.985Z,51.92
2017-07-08T15:32:16.398Z,52.04
2017-07-08T15:33:26.758Z,51.77
2017-07-08T15:34:37.125Z,51.4
2017-07-08T15:35:47.508Z,51.13
2017-07-08T15:36:57.871Z,51.13
2017-07-08T15:38:08.392Z,51.45
2017-07-08T15:39:18.767Z,51.92
2017-07-08T15:40:29.144Z,52.09